Time;durP1;ratioP1;P1;durP2;ratioP2;P2;SDS_P1;SDS_P2;PMS_P1;PMS_P2;Temp;Humidity;BMP_temperature;BMP_pressure;BME280_temperature;BME280_humidity;BME280_pressure;Samples;Min_cycle;Max_cycle;Signal;HPM_P1;HPM_P2
2022/01/30 00:00:05;;;;;;;6.20;1.80;;;10.80;77.00;;;;;;4994871;28;20030;-81
2022/01/30 00:02:34;;;;;;;4.85;1.83;;;10.80;77.00;;;;;;4993400;28;20367;-81
2022/01/30 00:05:00;;;;;;;4.88;1.90;;;10.80;77.00;;;;;;5003695;28;20037;-82
2022/01/30 00:07:26;;;;;;;5.93;2.00;;;10.80;77.00;;;;;;4978613;28;20030;-83
2022/01/30 00:09:52;;;;;;;5.45;2.20;;;10.80;77.00;;;;;;4986340;28;20034;-82
2022/01/30 00:12:25;;;;;;;5.60;1.83;;;10.80;77.00;;;;;;4961735;28;20123;-82
2022/01/30 00:14:54;;;;;;;4.53;1.65;;;10.80;77.00;;;;;;4975027;28;20236;-82
2022/01/30 00:17:28;;;;;;;6.70;1.95;;;10.70;76.90;;;;;;4979320;28;20041;-83
2022/01/30 00:19:59;;;;;;;6.55;2.05;;;10.70;77.00;;;;;;4993405;28;20099;-83
2022/01/30 00:25:09;;;;;;;4.95;1.90;;;10.70;77.00;;;;;;4991758;28;20041;-82
2022/01/30 00:27:49;;;;;;;8.38;2.20;;;10.70;77.00;;;;;;5010159;28;20032;-83
2022/01/30 00:30:17;;;;;;;4.60;2.08;;;10.70;77.00;;;;;;4989571;28;20022;-83
2022/01/30 00:33:04;;;;;;;5.72;1.92;;;10.70;77.00;;;;;;4987904;28;20057;-85
2022/01/30 00:35:35;;;;;;;4.95;1.88;;;10.70;77.00;;;;;;4993778;28;20029;-83
2022/01/30 00:38:04;;;;;;;6.03;2.20;;;10.60;77.00;;;;;;4988657;28;20033;-83
2022/01/30 00:40:30;;;;;;;9.15;2.70;;;10.60;77.00;;;;;;4964846;28;20042;-82
2022/01/30 00:42:56;;;;;;;7.65;2.67;;;10.60;77.00;;;;;;5000473;28;20434;-84
2022/01/30 00:45:22;;;;;;;5.68;2.17;;;10.60;77.00;;;;;;5000427;28;20056;-82
2022/01/30 00:47:49;;;;;;;5.65;2.35;;;10.60;77.00;;;;;;4984206;28;20044;-83
2022/01/30 00:50:15;;;;;;;6.53;2.20;;;10.50;77.00;;;;;;4991731;28;20367;-83
2022/01/30 00:52:42;;;;;;;4.93;1.90;;;10.60;77.00;;;;;;4999829;28;20033;-86
2022/01/30 00:55:08;;;;;;;5.95;2.25;;;10.50;76.90;;;;;;4992384;28;20108;-83
2022/01/30 00:57:43;;;;;;;5.05;1.95;;;10.50;76.90;;;;;;4996731;28;20026;-84
2022/01/30 01:00:12;;;;;;;8.00;2.33;;;10.50;77.00;;;;;;4975784;28;20056;-82
2022/01/30 01:02:39;;;;;;;6.10;2.20;;;10.50;76.90;;;;;;5001908;28;20033;-83
2022/01/30 01:05:08;;;;;;;7.07;2.40;;;10.40;76.90;;;;;;5000433;28;20058;-83
2022/01/30 01:07:35;;;;;;;6.35;2.42;;;10.50;76.90;;;;;;5001957;28;20041;-82
2022/01/30 01:10:11;;;;;;;6.60;2.10;;;10.40;76.90;;;;;;5017028;28;20041;-84
2022/01/30 01:13:02;;;;;;;7.43;2.78;;;10.40;76.90;;;;;;5000369;28;20109;-83
2022/01/30 01:23:46;;;;;;;6.35;2.42;;;10.30;77.50;;;;;;5005685;28;20064;-83
2022/01/30 01:26:13;;;;;;;7.75;2.15;;;10.30;76.90;;;;;;5012664;28;20484;-84
2022/01/30 01:28:41;;;;;;;5.55;2.03;;;10.30;77.00;;;;;;5037050;28;20172;-83
2022/01/30 01:31:10;;;;;;;7.82;1.98;;;10.30;77.00;;;;;;5019539;28;20017;-83
2022/01/30 01:36:21;;;;;;;5.25;2.08;;;10.30;77.00;;;;;;5021020;28;20099;-83
2022/01/30 01:38:50;;;;;;;5.78;1.92;;;10.20;76.90;;;;;;5017539;28;20032;-81
2022/01/30 01:41:19;;;;;;;9.95;2.58;;;10.20;76.90;;;;;;5012474;28;20026;-83
2022/01/30 01:43:50;;;;;;;5.22;2.10;;;10.20;77.00;;;;;;5013862;28;20470;-82
2022/01/30 01:46:30;;;;;;;4.22;1.80;;;10.20;77.00;;;;;;5011410;28;20034;-82
2022/01/30 01:48:56;;;;;;;7.32;2.45;;;10.20;77.00;;;;;;5007305;28;20030;-85
2022/01/30 01:51:26;;;;;;;6.63;2.08;;;10.20;76.90;;;;;;5012354;28;20037;-83
2022/01/30 01:53:56;;;;;;;7.22;2.38;;;10.20;77.00;;;;;;5021076;28;20068;-83
2022/01/30 01:56:23;;;;;;;6.40;2.10;;;10.20;77.00;;;;;;4984624;28;20049;-85
2022/01/30 01:59:01;;;;;;;4.32;1.90;;;10.20;77.00;;;;;;5013870;28;20041;-83
2022/01/30 02:01:52;;;;;;;6.22;2.10;;;10.10;76.90;;;;;;4989799;28;20041;-84
2022/01/30 02:04:25;;;;;;;6.47;2.05;;;10.20;77.00;;;;;;5020101;28;20033;-83
2022/01/30 02:07:49;;;;;;;5.30;2.00;;;10.20;77.00;;;;;;5012679;28;20049;-83
2022/01/30 02:09:48;;;;;;;4.00;1.60;;;10.10;77.00;;;;;;5006545;28;20034;-83
2022/01/30 02:12:21;;;;;;;5.10;1.90;;;10.10;77.00;;;;;;5019796;28;20099;-83
2022/01/30 02:25:49;;;;;;;3.83;1.70;;;10.10;77.10;;;;;;5014918;28;20369;-82
2022/01/30 02:28:18;;;;;;;6.78;2.13;;;10.10;77.00;;;;;;5015089;28;20056;-83
2022/01/30 02:30:53;;;;;;;4.45;1.83;;;10.00;77.10;;;;;;5022257;28;20049;-85
2022/01/30 02:33:22;;;;;;;5.35;1.90;;;10.00;77.10;;;;;;5011480;28;20112;-87
2022/01/30 02:35:49;;;;;;;5.50;2.28;;;10.00;77.10;;;;;;5007052;28;20455;-83
2022/01/30 02:38:22;;;;;;;5.75;2.05;;;10.00;77.10;;;;;;4999822;28;20052;-82
2022/01/30 02:40:52;;;;;;;5.88;2.00;;;10.00;77.10;;;;;;5010437;28;20501;-83
2022/01/30 02:43:23;;;;;;;5.80;1.92;;;10.00;77.10;;;;;;4995006;28;20056;-83
2022/01/30 02:46:05;;;;;;;4.30;1.90;;;10.00;77.10;;;;;;5004434;28;20505;-83
2022/01/30 02:48:51;;;;;;;5.88;2.10;;;10.00;77.10;;;;;;5012933;28;20454;-82
2022/01/30 02:51:20;;;;;;;4.70;2.05;;;10.00;77.20;;;;;;4993498;28;20116;-82
2022/01/30 02:53:55;;;;;;;6.60;2.45;;;10.00;77.10;;;;;;4979638;28;20048;-82
2022/01/30 02:56:22;;;;;;;5.25;1.92;;;10.00;77.10;;;;;;5004362;28;20768;-83
2022/01/30 02:58:48;;;;;;;5.88;1.95;;;10.00;77.10;;;;;;5019212;28;20378;-84
2022/01/30 03:01:15;;;;;;;5.57;1.83;;;9.90;77.10;;;;;;4976114;28;20033;-83
2022/01/30 03:03:41;;;;;;;8.10;2.03;;;10.00;77.10;;;;;;5001968;28;20029;-83
2022/01/30 03:06:09;;;;;;;5.47;1.83;;;9.90;77.10;;;;;;5012127;28;20141;-82
2022/01/30 03:08:35;;;;;;;4.30;1.65;;;10.00;77.20;;;;;;5006420;28;20021;-85
2022/01/30 03:11:01;;;;;;;7.32;2.00;;;9.90;77.10;;;;;;4994569;28;20545;-81
2022/01/30 03:13:26;;;;;;;7.07;2.75;;;9.90;77.10;;;;;;5007018;28;20673;-83
2022/01/30 03:15:52;;;;;;;4.45;1.60;;;9.90;77.10;;;;;;5022669;28;20049;-82
2022/01/30 03:18:20;;;;;;;5.80;1.95;;;9.90;77.10;;;;;;4996680;28;20038;-81
2022/01/30 03:20:47;;;;;;;5.13;2.10;;;9.90;77.10;;;;;;5011374;28;20041;-82
2022/01/30 03:23:13;;;;;;;5.32;1.83;;;9.90;77.10;;;;;;4995274;28;20111;-83
2022/01/30 03:25:45;;;;;;;4.85;2.13;;;9.90;77.10;;;;;;5001109;28;20045;-82
2022/01/30 03:28:35;;;;;;;6.82;2.10;;;9.90;77.10;;;;;;5006479;28;20041;-81
2022/01/30 03:31:14;;;;;;;4.93;1.88;;;9.80;77.00;;;;;;4999580;28;20049;-83
2022/01/30 03:33:45;;;;;;;5.38;1.80;;;9.90;77.10;;;;;;4995330;28;20030;-82
2022/01/30 03:36:12;;;;;;;3.30;1.60;;;9.80;77.10;;;;;;5007980;28;20041;-85
2022/01/30 03:38:41;;;;;;;4.35;1.70;;;9.80;77.10;;;;;;5012485;28;20025;-82
2022/01/30 03:41:11;;;;;;;5.57;1.75;;;9.80;77.10;;;;;;5013965;28;20378;-85
2022/01/30 03:43:39;;;;;;;7.95;2.03;;;9.80;77.10;;;;;;5005123;28;20533;-82
2022/01/30 03:46:06;;;;;;;5.50;1.70;;;9.80;77.10;;;;;;5018826;28;20029;-83
2022/01/30 03:48:32;;;;;;;5.38;1.70;;;9.80;77.10;;;;;;5002421;28;20684;-82
2022/01/30 03:51:06;;;;;;;3.88;1.50;;;9.80;77.10;;;;;;4979063;28;20026;-85
2022/01/30 03:53:33;;;;;;;5.85;2.15;;;9.70;77.00;;;;;;5022983;28;20029;-82
2022/01/30 03:56:00;;;;;;;5.45;1.90;;;9.70;77.10;;;;;;5013773;28;20034;-83
2022/01/30 03:58:32;;;;;;;4.55;1.77;;;9.70;77.10;;;;;;4996392;28;20050;-82
2022/01/30 04:01:04;;;;;;;4.53;1.80;;;9.70;77.10;;;;;;4996004;28;20030;-82
2022/01/30 04:03:30;;;;;;;5.03;1.80;;;9.70;77.10;;;;;;5014773;28;20136;-82
2022/01/30 04:05:57;;;;;;;4.30;1.60;;;9.70;77.10;;;;;;5013060;28;20025;-85
2022/01/30 04:08:24;;;;;;;4.80;1.60;;;9.70;77.10;;;;;;5022879;28;20096;-82
2022/01/30 04:11:02;;;;;;;3.17;1.65;;;9.60;77.00;;;;;;4998271;28;20026;-86
2022/01/30 04:13:44;;;;;;;3.78;1.63;;;9.60;77.00;;;;;;5012526;28;20056;-84
2022/01/30 04:16:35;;;;;;;5.57;1.77;;;9.60;77.00;;;;;;5015369;28;20029;-83
2022/01/30 04:19:12;;;;;;;5.03;2.10;;;9.50;77.00;;;;;;5030610;28;20030;-85
2022/01/30 04:21:57;;;;;;;4.30;1.60;;;9.50;77.00;;;;;;5015324;28;20099;-82
2022/01/30 04:24:42;;;;;;;2.92;1.38;;;9.50;77.00;;;;;;5019811;28;20090;-83
2022/01/30 04:27:35;;;;;;;3.95;1.80;;;9.50;77.00;;;;;;4996279;28;20029;-82
2022/01/30 04:30:22;;;;;;;4.15;1.65;;;9.40;77.00;;;;;;5015751;28;20026;-82
2022/01/30 04:33:16;;;;;;;3.88;1.30;;;9.40;77.00;;;;;;5009333;28;20101;-83
2022/01/30 04:36:08;;;;;;;3.67;1.73;;;9.40;77.00;;;;;;4997136;28;20497;-82
2022/01/30 04:54:43;;;;;;;4.05;1.65;;;9.20;77.00;;;;;;5014047;28;20040;-84
2022/01/30 04:57:36;;;;;;;3.38;1.42;;;9.20;77.10;;;;;;4997139;28;20083;-82
2022/01/30 05:00:30;;;;;;;3.65;1.60;;;9.20;77.10;;;;;;4936965;29;20074;-81
2022/01/30 05:03:42;;;;;;;3.45;1.35;;;9.20;77.10;;;;;;4935099;28;20042;-83
2022/01/30 05:06:51;;;;;;;1.90;1.20;;;9.10;77.10;;;;;;4938402;29;20052;-82
2022/01/30 05:09:37;;;;;;;2.53;1.30;;;9.10;77.20;;;;;;4955153;28;20539;-83
2022/01/30 05:12:26;;;;;;;4.85;1.40;;;9.10;77.20;;;;;;4916604;29;20511;-85
2022/01/30 05:15:22;;;;;;;3.55;1.52;;;9.10;77.20;;;;;;4956680;28;20043;-82
2022/01/30 05:18:08;;;;;;;3.78;1.60;;;9.10;77.20;;;;;;4957195;28;20096;-83
2022/01/30 05:20:43;;;;;;;3.20;1.40;;;9.10;77.10;;;;;;4963861;28;20444;-81
2022/01/30 05:23:31;;;;;;;3.20;1.48;;;9.10;77.20;;;;;;4956568;28;20054;-82
2022/01/30 05:26:27;;;;;;;3.10;1.42;;;9.10;77.10;;;;;;4958811;28;20535;-82
2022/01/30 05:29:15;;;;;;;3.88;1.50;;;9.10;77.10;;;;;;4953137;28;20093;-83
2022/01/30 05:32:07;;;;;;;5.38;1.55;;;9.10;77.20;;;;;;4977291;28;20033;-83
2022/01/30 05:34:54;;;;;;;2.90;1.60;;;9.00;77.20;;;;;;4985806;28;20034;-84
2022/01/30 05:37:40;;;;;;;4.03;1.48;;;9.00;77.10;;;;;;5029898;28;20564;-83
2022/01/30 05:40:26;;;;;;;2.95;1.20;;;9.00;77.20;;;;;;5021434;28;20036;-82
2022/01/30 05:43:11;;;;;;;3.20;1.35;;;9.00;77.20;;;;;;5018901;28;20156;-82
2022/01/30 05:46:06;;;;;;;6.30;1.67;;;9.00;77.20;;;;;;5004586;28;20391;-83
2022/01/30 05:49:05;;;;;;;4.22;1.70;;;9.00;77.20;;;;;;4982234;28;20117;-82
2022/01/30 05:51:45;;;;;;;5.75;1.73;;;9.00;77.10;;;;;;5013790;28;20026;-82
2022/01/30 05:54:25;;;;;;;2.22;1.55;;;9.00;77.20;;;;;;4996791;28;20076;-83
2022/01/30 05:56:51;;;;;;;3.78;1.63;;;9.00;77.20;;;;;;4994905;28;20068;-82
2022/01/30 05:59:17;;;;;;;3.50;1.30;;;9.00;77.20;;;;;;5015692;28;20596;-83
2022/01/30 06:02:05;;;;;;;3.97;1.55;;;8.90;77.20;;;;;;5021317;28;20029;-82
2022/01/30 06:04:31;;;;;;;4.18;1.52;;;9.00;77.10;;;;;;4998100;28;20069;-83
2022/01/30 06:06:58;;;;;;;4.05;1.70;;;8.90;77.10;;;;;;5002109;28;20046;-82
2022/01/30 06:09:24;;;;;;;4.75;1.65;;;8.90;77.10;;;;;;4995813;28;20058;-82
2022/01/30 06:11:52;;;;;;;3.92;1.67;;;8.90;77.10;;;;;;4980408;28;20113;-81
2022/01/30 06:14:20;;;;;;;3.42;1.40;;;8.90;77.10;;;;;;4982546;28;20048;-84
2022/01/30 06:16:47;;;;;;;4.03;1.60;;;8.90;77.10;;;;;;5012031;28;20026;-84
2022/01/30 06:19:33;;;;;;;5.13;1.70;;;8.90;77.10;;;;;;5015999;28;20108;-83
2022/01/30 06:22:27;;;;;;;2.78;1.42;;;8.90;77.00;;;;;;4983181;28;20053;-84
2022/01/30 06:25:11;;;;;;;4.20;1.60;;;8.90;77.10;;;;;;5009878;28;20398;-84
2022/01/30 06:28:12;;;;;;;4.00;1.52;;;8.90;77.40;;;;;;4940902;28;20446;-81
2022/01/30 06:31:10;;;;;;;3.50;1.27;;;8.90;77.20;;;;;;4978655;28;20117;-81
2022/01/30 06:33:42;;;;;;;5.85;1.70;;;8.90;77.20;;;;;;4995822;28;20065;-83
2022/01/30 06:36:26;;;;;;;3.40;1.42;;;8.90;77.20;;;;;;5006304;28;20047;-86
2022/01/30 06:39:02;;;;;;;5.30;1.60;;;8.90;77.20;;;;;;4980161;28;20034;-83
2022/01/30 06:41:45;;;;;;;4.70;1.70;;;8.90;77.20;;;;;;5004432;28;20017;-83
2022/01/30 06:44:31;;;;;;;4.90;2.08;;;8.90;77.20;;;;;;4995390;28;20052;-82
2022/01/30 06:47:42;;;;;;;4.38;1.50;;;8.90;77.20;;;;;;4940885;29;20047;-83
2022/01/30 06:50:27;;;;;;;3.70;1.70;;;8.90;77.30;;;;;;4990746;28;20055;-81
2022/01/30 06:53:11;;;;;;;4.85;1.60;;;8.80;77.20;;;;;;4994975;28;20056;-83
2022/01/30 06:56:09;;;;;;;5.38;2.10;;;8.80;77.20;;;;;;4963304;28;20033;-83
2022/01/30 06:58:56;;;;;;;4.10;1.67;;;8.80;77.20;;;;;;4998408;28;20096;-84
2022/01/30 07:01:40;;;;;;;4.18;1.55;;;8.80;77.20;;;;;;5003114;28;20465;-83
2022/01/30 07:04:25;;;;;;;3.37;1.63;;;8.80;77.20;;;;;;4987757;28;20091;-86
2022/01/30 07:07:29;;;;;;;5.47;1.77;;;8.80;77.30;;;;;;4980553;28;20041;-85
2022/01/30 07:09:56;;;;;;;4.53;1.60;;;8.80;77.20;;;;;;5005413;28;20363;-82
2022/01/30 07:12:31;;;;;;;2.65;1.60;;;8.80;77.30;;;;;;5006454;28;20036;-83
2022/01/30 07:15:08;;;;;;;4.95;1.60;;;8.80;77.30;;;;;;4994689;28;20045;-83
2022/01/30 07:17:35;;;;;;;4.18;1.52;;;8.80;77.30;;;;;;4978257;28;20048;-80
2022/01/30 07:20:01;;;;;;;3.17;1.40;;;8.80;77.30;;;;;;4980829;28;20534;-82
2022/01/30 07:22:39;;;;;;;4.00;1.65;;;8.70;77.30;;;;;;5022175;28;20056;-83
2022/01/30 07:25:07;;;;;;;6.55;2.15;;;8.70;77.30;;;;;;5013687;28;20129;-82
2022/01/30 07:27:38;;;;;;;4.18;1.80;;;8.80;77.30;;;;;;4998344;28;20042;-83
2022/01/30 07:30:07;;;;;;;5.35;2.13;;;8.70;77.30;;;;;;4988612;28;20036;-81
2022/01/30 07:32:35;;;;;;;4.93;1.52;;;8.80;77.40;;;;;;5001614;28;20060;-83
2022/01/30 07:35:01;;;;;;;4.03;1.55;;;8.80;77.30;;;;;;4993796;28;20120;-81
2022/01/30 07:37:30;;;;;;;2.50;1.23;;;8.70;77.30;;;;;;5002812;28;20029;-85
2022/01/30 07:40:04;;;;;;;5.32;2.10;;;8.70;77.30;;;;;;5006334;28;20092;-83
2022/01/30 07:42:39;;;;;;;4.88;2.03;;;8.70;77.40;;;;;;5026356;28;20036;-82
2022/01/30 07:45:06;;;;;;;5.50;1.55;;;8.70;77.30;;;;;;5006682;28;20036;-83
2022/01/30 07:47:32;;;;;;;4.30;1.77;;;8.70;77.30;;;;;;5021233;28;20454;-83
2022/01/30 07:49:58;;;;;;;4.03;1.52;;;8.70;77.30;;;;;;5020674;28;20037;-83
2022/01/30 07:52:35;;;;;;;4.22;1.67;;;8.70;78.00;;;;;;5019098;28;20048;-84
2022/01/30 07:55:06;;;;;;;3.83;1.60;;;8.70;77.30;;;;;;5026392;28;20086;-82
2022/01/30 07:57:44;;;;;;;4.70;1.65;;;8.70;77.30;;;;;;5020580;28;20079;-83
2022/01/30 08:00:12;;;;;;;3.25;1.60;;;8.70;77.30;;;;;;5029601;28;20457;-83
2022/01/30 08:02:41;;;;;;;3.25;1.42;;;8.70;77.30;;;;;;5019571;28;20025;-83
2022/01/30 08:05:11;;;;;;;3.25;1.50;;;8.70;77.30;;;;;;5001995;28;20462;-84
2022/01/30 08:07:38;;;;;;;3.45;2.00;;;8.60;77.30;;;;;;5006434;28;20534;-82
2022/01/30 08:10:05;;;;;;;3.78;1.60;;;8.70;77.40;;;;;;5021093;28;20044;-83
2022/01/30 08:12:32;;;;;;;3.50;1.70;;;8.60;77.30;;;;;;5017815;28;20028;-85
2022/01/30 08:15:07;;;;;;;3.95;1.65;;;8.70;77.40;;;;;;5011430;28;20072;-83
2022/01/30 08:17:35;;;;;;;3.97;1.80;;;8.70;77.40;;;;;;5028439;28;20045;-83
2022/01/30 08:20:08;;;;;;;5.75;1.80;;;8.60;77.40;;;;;;5013468;28;20087;-83
2022/01/30 08:22:51;;;;;;;4.20;2.08;;;8.60;77.40;;;;;;5010177;28;20041;-84
2022/01/30 08:25:19;;;;;;;4.57;1.80;;;8.60;77.50;;;;;;5010316;28;20144;-82
2022/01/30 08:27:53;;;;;;;6.80;2.15;;;8.70;77.40;;;;;;5008606;28;20030;-82
2022/01/30 08:30:21;;;;;;;4.55;1.60;;;8.70;77.40;;;;;;5017998;28;20033;-83
2022/01/30 08:32:49;;;;;;;3.78;1.65;;;8.60;77.40;;;;;;5018906;28;20033;-83
2022/01/30 08:35:17;;;;;;;3.83;1.92;;;8.70;77.50;;;;;;5009256;28;20425;-83
2022/01/30 08:37:45;;;;;;;2.50;1.30;;;8.60;77.40;;;;;;5004144;28;20124;-82
2022/01/30 08:40:16;;;;;;;4.15;1.65;;;8.60;77.40;;;;;;5012359;28;20017;-83
2022/01/30 08:42:47;;;;;;;3.85;1.70;;;8.60;77.50;;;;;;5019003;28;20041;-83
2022/01/30 08:45:20;;;;;;;5.15;1.90;;;8.60;77.50;;;;;;5015897;28;20494;-82
2022/01/30 08:47:47;;;;;;;4.80;1.67;;;8.60;77.50;;;;;;4992889;28;20038;-81
2022/01/30 08:50:15;;;;;;;2.38;1.48;;;8.60;77.50;;;;;;5005730;28;20116;-85
2022/01/30 08:52:42;;;;;;;4.07;1.60;;;8.70;77.60;;;;;;5000646;28;20513;-84
2022/01/30 08:55:11;;;;;;;4.43;1.85;;;8.60;77.50;;;;;;5005606;28;20586;-83
2022/01/30 08:57:40;;;;;;;6.40;1.83;;;8.60;77.50;;;;;;5013086;28;20478;-84
2022/01/30 09:00:10;;;;;;;3.95;1.60;;;8.70;77.60;;;;;;5011428;28;20014;-84
2022/01/30 09:02:36;;;;;;;4.65;1.90;;;8.60;77.50;;;;;;5012997;28;20083;-83
2022/01/30 09:05:03;;;;;;;6.63;1.70;;;8.70;77.60;;;;;;5015127;28;20090;-83
2022/01/30 09:07:30;;;;;;;3.40;1.60;;;8.70;77.60;;;;;;4994352;28;20037;-82
2022/01/30 09:09:56;;;;;;;3.65;1.63;;;8.70;77.60;;;;;;5018211;28;20037;-85
2022/01/30 09:12:25;;;;;;;5.22;1.90;;;8.60;77.50;;;;;;4987476;28;20040;-83
2022/01/30 09:14:52;;;;;;;3.58;1.55;;;8.70;77.60;;;;;;5016092;28;20014;-83
2022/01/30 09:17:19;;;;;;;4.60;1.80;;;8.70;77.60;;;;;;5017922;28;20116;-82
2022/01/30 09:19:47;;;;;;;5.00;1.85;;;8.60;77.60;;;;;;5022529;28;20021;-84
2022/01/30 09:22:17;;;;;;;5.35;2.13;;;8.70;77.70;;;;;;5003349;28;20103;-82
2022/01/30 09:24:45;;;;;;;5.30;1.90;;;8.70;77.70;;;;;;5008997;28;20107;-85
2022/01/30 09:27:12;;;;;;;3.65;1.75;;;8.70;77.70;;;;;;4996519;28;20034;-81
2022/01/30 09:29:39;;;;;;;5.13;1.60;;;8.70;77.60;;;;;;4958470;28;20534;-83
2022/01/30 09:32:07;;;;;;;4.60;1.95;;;8.70;77.60;;;;;;4981453;28;20033;-82
2022/01/30 09:34:34;;;;;;;5.55;2.03;;;8.70;77.60;;;;;;5005438;28;20025;-83
2022/01/30 09:37:00;;;;;;;3.30;1.60;;;8.80;77.70;;;;;;4991605;28;20073;-83
2022/01/30 09:39:26;;;;;;;3.80;1.50;;;8.80;77.60;;;;;;4980896;28;20030;-85
2022/01/30 09:41:53;;;;;;;4.85;2.25;;;8.80;77.60;;;;;;4983520;28;20467;-82
2022/01/30 09:44:20;;;;;;;3.65;1.50;;;8.80;77.60;;;;;;4977328;28;20038;-82
2022/01/30 09:46:46;;;;;;;4.57;1.83;;;8.80;77.60;;;;;;5004608;28;20489;-82
2022/01/30 09:49:13;;;;;;;3.83;1.58;;;8.80;77.60;;;;;;4984420;28;20435;-82
2022/01/30 09:51:43;;;;;;;4.47;1.52;;;8.80;77.60;;;;;;4988806;28;20121;-84
2022/01/30 09:54:09;;;;;;;3.72;1.70;;;8.80;77.60;;;;;;4990463;28;20053;-82
2022/01/30 09:56:36;;;;;;;4.88;1.88;;;8.90;77.60;;;;;;4980433;28;20058;-83
2022/01/30 09:59:04;;;;;;;7.05;2.00;;;8.90;77.60;;;;;;4989383;28;20760;-83
2022/01/30 10:01:37;;;;;;;4.07;1.70;;;8.90;77.60;;;;;;4995851;28;20478;-82
2022/01/30 10:04:05;;;;;;;4.47;1.85;;;8.90;77.60;;;;;;5004888;28;20133;-83
2022/01/30 10:06:49;;;;;;;7.78;2.17;;;8.90;77.60;;;;;;4994934;28;20030;-83
2022/01/30 10:09:28;;;;;;;5.00;1.70;;;8.90;77.60;;;;;;5008750;28;20033;-82
2022/01/30 10:12:10;;;;;;;5.97;1.75;;;8.90;77.60;;;;;;4994200;28;20026;-84
2022/01/30 10:15:16;;;;;;;4.82;1.83;;;9.00;77.60;;;;;;4994145;28;20482;-84
2022/01/30 10:17:49;;;;;;;3.60;1.77;;;9.00;77.80;;;;;;4990162;28;20065;-83
2022/01/30 10:20:17;;;;;;;4.50;1.90;;;9.00;77.60;;;;;;4990115;28;20034;-81
2022/01/30 10:22:49;;;;;;;4.30;1.60;;;9.00;77.60;;;;;;5012256;28;20480;-83
2022/01/30 10:25:23;;;;;;;4.50;1.98;;;9.00;77.70;;;;;;5017843;28;20080;-85
2022/01/30 10:28:04;;;;;;;7.13;2.40;;;9.00;77.70;;;;;;5023243;28;20123;-86
2022/01/30 10:30:46;;;;;;;4.78;1.95;;;9.10;77.70;;;;;;5014675;28;20141;-86
2022/01/30 10:33:16;;;;;;;4.75;2.03;;;9.10;77.70;;;;;;5009867;28;20052;-82
2022/01/30 10:35:55;;;;;;;5.93;2.65;;;9.10;77.60;;;;;;5014252;28;20041;-83
2022/01/30 10:38:26;;;;;;;5.60;2.33;;;9.20;77.70;;;;;;5006163;28;20116;-83
2022/01/30 10:41:31;;;;;;;5.00;2.35;;;9.20;77.60;;;;;;5008835;28;20033;-83
2022/01/30 10:44:04;;;;;;;6.45;2.10;;;9.20;77.80;;;;;;5016397;28;20029;-83
2022/01/30 10:46:38;;;;;;;7.20;2.58;;;9.20;77.60;;;;;;5017627;28;20043;-83
2022/01/30 10:49:13;;;;;;;5.90;2.22;;;9.20;77.60;;;;;;5014136;28;20049;-85
2022/01/30 10:51:50;;;;;;;5.17;2.03;;;9.30;77.60;;;;;;5017489;28;20025;-83
2022/01/30 10:54:16;;;;;;;5.30;1.70;;;9.30;77.50;;;;;;5007223;28;20043;-82
2022/01/30 10:57:11;;;;;;;6.50;2.60;;;9.30;77.50;;;;;;5006166;28;20030;-81
2022/01/30 10:59:53;;;;;;;6.13;2.00;;;9.40;77.70;;;;;;5010641;28;20128;-83
2022/01/30 11:02:28;;;;;;;6.47;2.20;;;9.40;77.50;;;;;;5024068;28;20463;-84
2022/01/30 11:05:05;;;;;;;6.25;2.40;;;9.40;77.40;;;;;;5017548;28;20052;-82
2022/01/30 11:07:36;;;;;;;7.00;2.40;;;9.40;77.50;;;;;;5007083;28;20033;-81
2022/01/30 11:10:10;;;;;;;6.63;2.60;;;9.40;77.40;;;;;;5023831;28;20075;-83
2022/01/30 11:12:45;;;;;;;6.95;2.67;;;9.50;77.50;;;;;;5019470;28;20052;-83
2022/01/30 11:17:44;;;;;;;7.38;2.45;;;9.50;77.40;;;;;;5014638;28;20037;-84
2022/01/30 11:20:12;;;;;;;6.25;2.53;;;9.60;77.40;;;;;;5009785;28;20120;-83
2022/01/30 11:22:43;;;;;;;9.25;2.63;;;9.50;77.40;;;;;;5013194;28;20048;-82
2022/01/30 11:25:12;;;;;;;9.35;2.50;;;9.60;77.40;;;;;;5006415;28;20037;-83
2022/01/30 11:27:43;;;;;;;9.43;2.80;;;9.60;77.30;;;;;;5009191;28;20065;-82
2022/01/30 11:30:10;;;;;;;5.38;2.55;;;9.60;77.30;;;;;;5017243;28;20132;-83
2022/01/30 11:32:38;;;;;;;8.43;2.50;;;9.60;77.30;;;;;;5015302;28;20029;-82
2022/01/30 11:35:04;;;;;;;7.93;2.58;;;9.70;77.30;;;;;;5022923;28;20107;-83
2022/01/30 11:37:37;;;;;;;6.35;2.50;;;9.70;77.30;;;;;;5023196;28;20025;-84
2022/01/30 11:40:29;;;;;;;8.40;2.92;;;9.80;77.40;;;;;;5000835;28;20140;-85
2022/01/30 11:42:56;;;;;;;6.30;2.58;;;9.80;77.50;;;;;;5016526;28;20056;-83
2022/01/30 11:45:31;;;;;;;6.90;2.35;;;9.80;77.30;;;;;;5014759;28;20030;-83
2022/01/30 11:48:18;;;;;;;8.55;2.63;;;9.80;77.30;;;;;;5014347;28;20070;-83
2022/01/30 11:50:45;;;;;;;7.80;2.40;;;9.90;77.30;;;;;;5031395;28;20083;-82
2022/01/30 11:53:28;;;;;;;8.07;2.22;;;9.90;77.30;;;;;;5018112;28;20021;-84
2022/01/30 11:56:04;;;;;;;7.57;2.60;;;9.90;77.30;;;;;;5014698;28;20037;-82
2022/01/30 11:58:35;;;;;;;6.93;2.10;;;9.90;77.30;;;;;;5013638;28;20041;-84
2022/01/30 12:01:09;;;;;;;7.82;2.60;;;9.90;77.20;;;;;;5022094;28;20117;-82
2022/01/30 12:04:12;;;;;;;8.27;2.40;;;10.00;77.30;;;;;;4980992;28;20038;-83
2022/01/30 12:06:46;;;;;;;6.28;2.33;;;10.00;77.40;;;;;;5017843;28;20509;-83
2022/01/30 12:13:13;;;;;;;7.05;2.63;;;10.10;77.80;;;;;;5032874;28;20037;-82
2022/01/30 12:15:47;;;;;;;5.68;2.03;;;10.10;77.30;;;;;;5008742;28;20128;-82
2022/01/30 12:18:45;;;;;;;7.40;2.58;;;10.10;77.10;;;;;;5022199;28;20065;-82
2022/01/30 12:24:28;;;;;;;7.20;2.22;;;10.10;77.10;;;;;;5007765;28;20138;-84
2022/01/30 12:27:11;;;;;;;8.32;2.42;;;10.20;77.20;;;;;;4985696;28;20076;-81
2022/01/30 12:30:25;;;;;;;6.15;2.47;;;10.20;77.10;;;;;;5010461;28;20505;-84
2022/01/30 12:33:04;;;;;;;7.35;2.25;;;10.20;77.20;;;;;;4971661;28;20125;-83
2022/01/30 12:35:48;;;;;;;7.50;2.75;;;10.30;77.10;;;;;;4994164;28;20061;-83
2022/01/30 12:38:14;;;;;;;7.78;2.50;;;10.30;77.10;;;;;;4995539;28;20036;-83
2022/01/30 12:40:51;;;;;;;8.95;2.90;;;10.40;77.10;;;;;;5005401;28;20036;-82
2022/01/30 12:43:26;;;;;;;6.25;2.78;;;10.40;77.10;;;;;;4989544;28;20038;-82
2022/01/30 12:46:30;;;;;;;6.00;2.27;;;10.40;77.00;;;;;;5006810;28;20026;-87
2022/01/30 12:49:13;;;;;;;8.88;2.78;;;10.40;77.00;;;;;;4978102;28;20285;-82
2022/01/30 12:52:20;;;;;;;6.45;2.38;;;10.50;76.80;;;;;;5026612;28;20068;-83
2022/01/30 12:54:54;;;;;;;7.45;2.80;;;10.50;76.90;;;;;;4994322;28;20042;-82
2022/01/30 12:57:31;;;;;;;5.90;2.38;;;10.50;76.70;;;;;;4982078;28;20140;-82
2022/01/30 13:00:24;;;;;;;7.07;2.63;;;10.60;76.80;;;;;;4998605;28;20038;-85
2022/01/30 13:03:07;;;;;;;7.75;2.92;;;10.60;76.80;;;;;;4997409;28;20054;-83
2022/01/30 13:05:44;;;;;;;5.68;2.20;;;10.70;76.70;;;;;;5012159;28;20045;-84
2022/01/30 13:08:17;;;;;;;6.40;2.58;;;10.70;76.70;;;;;;4984891;28;20048;-86
2022/01/30 13:10:44;;;;;;;8.63;2.40;;;10.70;76.60;;;;;;5007597;28;20053;-84
2022/01/30 13:13:22;;;;;;;8.40;2.83;;;10.70;76.60;;;;;;4987657;28;20474;-84
2022/01/30 13:16:08;;;;;;;7.35;2.50;;;10.80;76.60;;;;;;5021627;28;20037;-81
2022/01/30 13:18:44;;;;;;;7.03;2.35;;;10.80;76.50;;;;;;5009035;28;20470;-83
2022/01/30 13:21:34;;;;;;;9.35;2.80;;;10.80;76.50;;;;;;5000415;28;20030;-81
2022/01/30 13:24:04;;;;;;;9.00;2.45;;;10.90;76.50;;;;;;4985318;28;20082;-82
2022/01/30 13:26:48;;;;;;;7.63;2.53;;;10.90;76.40;;;;;;5015544;28;20037;-83
2022/01/30 13:29:22;;;;;;;9.27;2.67;;;11.00;76.50;;;;;;5023429;28;20037;-83
2022/01/30 13:32:01;;;;;;;8.43;2.58;;;11.00;76.30;;;;;;5013689;28;20034;-83
2022/01/30 13:34:39;;;;;;;6.57;2.47;;;11.00;76.30;;;;;;5025897;28;20021;-84
2022/01/30 13:37:34;;;;;;;6.45;2.20;;;11.10;76.40;;;;;;5016085;28;20046;-83
2022/01/30 13:40:36;;;;;;;8.82;2.38;;;11.10;76.30;;;;;;5010005;28;20032;-83
2022/01/30 13:43:20;;;;;;;6.90;2.30;;;11.10;76.30;;;;;;5020331;28;20026;-83
2022/01/30 13:49:07;;;;;;;7.53;2.45;;;11.10;76.20;;;;;;5011140;28;20558;-83
2022/01/30 13:52:10;;;;;;;7.63;2.58;;;11.20;76.20;;;;;;5029897;28;20733;-82
2022/01/30 13:54:43;;;;;;;6.43;1.98;;;11.30;76.20;;;;;;4911721;29;20039;-85
2022/01/30 13:57:20;;;;;;;8.88;2.72;;;11.30;76.20;;;;;;4980059;28;20045;-83
2022/01/30 14:00:14;;;;;;;8.80;2.25;;;11.30;76.20;;;;;;5021389;28;20041;-83
2022/01/30 14:03:10;;;;;;;8.73;2.60;;;11.30;76.10;;;;;;5017137;28;20034;-84
2022/01/30 14:06:02;;;;;;;;;;;11.30;76.30;;;;;;5007037;28;20038;-83
2022/01/30 14:09:11;;;;;;;6.85;2.35;;;11.40;76.20;;;;;;5025317;28;20361;-82
2022/01/30 14:12:03;;;;;;;5.38;1.90;;;11.40;76.00;;;;;;5024079;28;20051;-83
2022/01/30 14:14:34;;;;;;;9.02;2.33;;;11.50;76.10;;;;;;4999209;28;20041;-83
2022/01/30 14:17:11;;;;;;;8.10;2.35;;;11.50;76.00;;;;;;5002761;28;20057;-84
2022/01/30 14:20:17;;;;;;;6.63;2.67;;;11.50;76.00;;;;;;5020582;28;20398;-85
2022/01/30 14:23:53;;;;;;;6.65;2.03;;;11.50;75.90;;;;;;5019527;28;20030;-84
2022/01/30 14:30:17;;;;;;;6.35;2.10;;;11.50;75.70;;;;;;4930905;29;20055;-84
2022/01/30 14:32:57;;;;;;;5.30;1.92;;;11.60;75.70;;;;;;4886006;29;20070;-85
2022/01/30 14:35:59;;;;;;;7.30;2.78;;;11.60;75.60;;;;;;5020881;28;20069;-84